Time;durP1;ratioP1;P1;durP2;ratioP2;P2;SDS_P1;SDS_P2;PMS_P1;PMS_P2;Temp;Humidity;BMP_temperature;BMP_pressure;BME280_temperature;BME280_humidity;BME280_pressure;Samples;Min_cycle;Max_cycle;Signal;HPM_P1;HPM_P2
2023/11/17 00:02:14;;;;;;;46.55;21.83;;;9.30;99.90;;;;;;5035237;27;20553;-71
2023/11/17 00:04:40;;;;;;;36.40;19.42;;;9.30;99.90;;;;;;5027658;27;20022;-71
2023/11/17 00:07:05;;;;;;;40.20;21.15;;;9.30;99.90;;;;;;5025984;27;20096;-71
2023/11/17 00:09:31;;;;;;;35.55;20.27;;;9.20;99.90;;;;;;5036250;27;20058;-71
2023/11/17 00:11:57;;;;;;;38.10;20.40;;;9.20;99.90;;;;;;5032455;27;20497;-71
2023/11/17 00:14:22;;;;;;;38.63;20.38;;;9.20;99.90;;;;;;5034297;27;20032;-70
2023/11/17 00:16:48;;;;;;;41.72;21.05;;;9.20;99.90;;;;;;5029374;27;20389;-71
2023/11/17 00:19:14;;;;;;;39.92;20.33;;;9.10;99.90;;;;;;5024720;27;20394;-70
2023/11/17 00:21:40;;;;;;;35.85;19.73;;;9.10;99.90;;;;;;5019773;27;20117;-71
2023/11/17 00:24:06;;;;;;;34.72;21.15;;;9.10;99.90;;;;;;5029137;27;20100;-71
2023/11/17 00:26:32;;;;;;;41.45;21.38;;;9.10;99.90;;;;;;5020392;27;20029;-70
2023/11/17 00:28:59;;;;;;;41.15;21.48;;;9.10;99.90;;;;;;5033661;27;20114;-71
2023/11/17 00:31:25;;;;;;;39.70;20.90;;;9.10;99.90;;;;;;5018474;27;20113;-71
2023/11/17 00:33:52;;;;;;;37.85;20.73;;;9.10;99.90;;;;;;5029770;27;20101;-70
2023/11/17 00:36:18;;;;;;;38.33;20.70;;;9.10;99.90;;;;;;5025584;27;20095;-71
2023/11/17 00:38:43;;;;;;;36.13;19.58;;;9.10;99.90;;;;;;5020713;27;20010;-71
2023/11/17 00:41:09;;;;;;;39.28;19.85;;;9.10;99.90;;;;;;5025991;27;20470;-71
2023/11/17 00:43:36;;;;;;;41.42;19.48;;;9.10;99.90;;;;;;5037610;27;20018;-71
2023/11/17 00:46:03;;;;;;;43.25;20.77;;;9.00;99.90;;;;;;5017098;28;20030;-71
2023/11/17 00:48:29;;;;;;;39.78;21.00;;;9.00;99.90;;;;;;5028486;27;20020;-71
2023/11/17 00:50:55;;;;;;;36.80;20.08;;;9.00;99.90;;;;;;5023022;27;20432;-71
2023/11/17 00:53:26;;;;;;;37.75;20.70;;;8.90;99.90;;;;;;5026226;27;20170;-71
2023/11/17 00:55:53;;;;;;;38.45;19.50;;;8.90;99.90;;;;;;5017304;28;20030;-71
2023/11/17 00:58:24;;;;;;;33.50;18.80;;;8.90;99.90;;;;;;5022326;27;20466;-70
2023/11/17 01:00:50;;;;;;;32.58;18.33;;;8.90;99.90;;;;;;5018720;27;20077;-71
2023/11/17 01:03:17;;;;;;;30.83;18.98;;;8.90;99.90;;;;;;5030999;27;20404;-70
2023/11/17 01:05:43;;;;;;;31.80;18.27;;;8.80;99.90;;;;;;5042695;27;20502;-70
2023/11/17 01:08:09;;;;;;;39.78;20.30;;;8.80;99.90;;;;;;5030445;28;20125;-70
2023/11/17 01:10:35;;;;;;;37.70;19.80;;;8.80;99.90;;;;;;5031076;27;20036;-70
2023/11/17 01:13:04;;;;;;;40.60;19.38;;;8.80;99.90;;;;;;5018502;27;20105;-72
2023/11/17 01:15:34;;;;;;;35.90;20.08;;;8.80;99.90;;;;;;5031644;27;20022;-71
2023/11/17 01:18:06;;;;;;;38.58;20.80;;;8.70;99.90;;;;;;5023792;28;20082;-71
2023/11/17 01:20:33;;;;;;;34.08;19.67;;;8.70;99.90;;;;;;5029042;27;20098;-71
2023/11/17 01:23:01;;;;;;;35.72;20.50;;;8.70;99.90;;;;;;5023692;27;20447;-70
2023/11/17 01:25:34;;;;;;;35.97;18.80;;;8.70;99.90;;;;;;5029363;27;20026;-70
2023/11/17 01:28:01;;;;;;;34.72;18.85;;;8.70;99.90;;;;;;5033407;28;20474;-72
2023/11/17 01:30:28;;;;;;;34.92;19.40;;;8.60;99.90;;;;;;5023601;28;22119;-71
2023/11/17 01:32:54;;;;;;;38.42;20.20;;;8.60;99.90;;;;;;5023465;28;20025;-71
2023/11/17 01:35:20;;;;;;;41.42;20.77;;;8.50;99.90;;;;;;5033576;28;20071;-70
2023/11/17 01:37:45;;;;;;;35.97;20.05;;;8.50;99.90;;;;;;5025422;28;20049;-71
2023/11/17 01:40:11;;;;;;;41.53;21.05;;;8.50;99.90;;;;;;5019566;28;20040;-71
2023/11/17 01:42:37;;;;;;;42.22;21.42;;;8.50;99.90;;;;;;5030500;28;20045;-70
2023/11/17 01:45:10;;;;;;;36.55;19.90;;;8.50;99.90;;;;;;5032917;28;20679;-70
2023/11/17 01:47:39;;;;;;;38.40;19.85;;;8.50;99.90;;;;;;5033473;28;20026;-71
2023/11/17 01:50:11;;;;;;;39.00;19.38;;;8.50;99.90;;;;;;5035532;28;20033;-70
2023/11/17 01:52:39;;;;;;;36.00;18.95;;;8.50;99.90;;;;;;5021752;28;20490;-71
2023/11/17 01:55:07;;;;;;;40.90;18.73;;;8.50;99.90;;;;;;5016736;28;20057;-71
2023/11/17 01:57:37;;;;;;;35.90;20.08;;;8.50;99.90;;;;;;5027869;28;20439;-71
2023/11/17 02:00:06;;;;;;;33.83;18.67;;;8.40;99.90;;;;;;5016339;28;20028;-72
2023/11/17 02:02:35;;;;;;;34.63;18.00;;;8.40;99.90;;;;;;5029504;28;20140;-71
2023/11/17 02:05:02;;;;;;;40.42;20.67;;;8.40;99.90;;;;;;5019165;28;20025;-72
2023/11/17 02:08:07;;;;;;;39.33;20.33;;;8.40;99.90;;;;;;5027796;28;20056;-72
2023/11/17 02:10:46;;;;;;;40.67;20.50;;;8.30;99.90;;;;;;5008813;27;20053;-71
2023/11/17 02:13:25;;;;;;;42.42;21.27;;;8.30;99.90;;;;;;5029800;28;20029;-71
2023/11/17 02:15:54;;;;;;;43.72;21.77;;;8.20;99.90;;;;;;5041076;27;20716;-71
2023/11/17 02:18:22;;;;;;;43.45;22.27;;;8.20;99.90;;;;;;5029515;27;20025;-71
2023/11/17 02:20:53;;;;;;;46.50;25.70;;;8.20;99.90;;;;;;5039685;27;20101;-71
2023/11/17 02:23:21;;;;;;;43.10;23.20;;;8.20;99.90;;;;;;5027880;27;20534;-71
2023/11/17 02:26:15;;;;;;;51.08;29.48;;;8.20;99.90;;;;;;5037959;27;20025;-71
2023/11/17 02:28:58;;;;;;;90.40;54.70;;;8.20;99.90;;;;;;5032528;27;20029;-71
2023/11/17 02:31:31;;;;;;;105.65;63.30;;;8.20;99.90;;;;;;5023455;28;20021;-71
2023/11/17 02:34:03;;;;;;;91.53;56.17;;;8.20;99.90;;;;;;5030181;27;20441;-71
2023/11/17 02:36:32;;;;;;;61.78;37.25;;;8.20;99.90;;;;;;5025784;27;20022;-70
2023/11/17 02:39:12;;;;;;;57.03;33.55;;;8.20;99.90;;;;;;5020022;27;20065;-70
2023/11/17 02:41:48;;;;;;;86.13;55.03;;;8.20;99.90;;;;;;5035123;27;20076;-71
2023/11/17 02:44:15;;;;;;;76.57;44.13;;;8.20;99.90;;;;;;5020441;27;20061;-71
2023/11/17 02:46:44;;;;;;;55.53;33.55;;;8.10;99.90;;;;;;5033743;27;20022;-70
2023/11/17 02:50:00;;;;;;;61.63;34.35;;;8.10;99.90;;;;;;5020463;27;20026;-71
2023/11/17 02:52:03;;;;;;;52.30;34.10;;;8.10;99.90;;;;;;5023587;27;20044;-71
2023/11/17 02:54:30;;;;;;;59.83;35.72;;;8.10;99.90;;;;;;5029946;27;20467;-72
2023/11/17 02:56:56;;;;;;;62.00;37.80;;;8.10;99.90;;;;;;5035893;27;20025;-71
2023/11/17 02:59:22;;;;;;;55.78;31.85;;;8.10;99.90;;;;;;5031589;27;20022;-71
2023/11/17 03:01:52;;;;;;;46.35;28.27;;;8.10;99.90;;;;;;5023556;27;20034;-71
2023/11/17 03:04:18;;;;;;;47.78;27.88;;;8.10;99.90;;;;;;5027083;27;20030;-71
2023/11/17 03:06:45;;;;;;;48.15;28.27;;;8.10;99.90;;;;;;5034590;27;20052;-71
2023/11/17 03:09:22;;;;;;;57.78;29.60;;;8.10;99.90;;;;;;5031905;27;20459;-71
2023/11/17 03:11:51;;;;;;;46.65;25.90;;;8.10;99.90;;;;;;5027878;27;20033;-71
2023/11/17 03:14:20;;;;;;;47.75;26.23;;;7.90;99.90;;;;;;5028838;27;20014;-71
2023/11/17 03:16:51;;;;;;;48.63;24.63;;;7.90;99.90;;;;;;5030470;27;20025;-71
2023/11/17 03:19:16;;;;;;;46.90;24.33;;;7.90;99.90;;;;;;5035778;27;20037;-71
2023/11/17 03:21:44;;;;;;;39.67;24.17;;;8.00;99.90;;;;;;5029414;27;20046;-71
2023/11/17 03:24:17;;;;;;;45.13;23.77;;;8.00;99.90;;;;;;5035517;27;20443;-71
2023/11/17 03:26:53;;;;;;;43.55;24.30;;;8.00;99.90;;;;;;5019536;28;20082;-71
2023/11/17 03:29:20;;;;;;;48.10;27.33;;;8.00;99.90;;;;;;5028339;27;20024;-71
2023/11/17 03:31:48;;;;;;;44.67;25.67;;;8.00;99.90;;;;;;5018115;27;20018;-71
2023/11/17 03:34:18;;;;;;;40.50;24.02;;;8.00;99.90;;;;;;5020680;27;20033;-71
2023/11/17 03:36:44;;;;;;;38.47;21.85;;;8.00;99.90;;;;;;5021643;27;20047;-71
2023/11/17 03:39:12;;;;;;;36.75;19.80;;;7.90;99.90;;;;;;5021564;27;20039;-71
2023/11/17 03:41:41;;;;;;;41.30;20.73;;;8.00;99.90;;;;;;5020023;27;20057;-71
2023/11/17 03:44:07;;;;;;;46.28;23.80;;;8.00;99.90;;;;;;5036057;27;20082;-71
2023/11/17 03:46:33;;;;;;;43.42;21.20;;;8.00;99.90;;;;;;5025555;27;20026;-71
2023/11/17 03:48:59;;;;;;;37.85;21.23;;;7.90;99.90;;;;;;5026149;27;20075;-71
2023/11/17 03:51:25;;;;;;;43.92;22.30;;;7.90;99.90;;;;;;5037214;27;20038;-72
2023/11/17 03:53:51;;;;;;;44.60;22.10;;;7.90;99.90;;;;;;5018571;28;20096;-72
2023/11/17 03:56:20;;;;;;;46.83;22.15;;;7.90;99.90;;;;;;5032779;27;20029;-71
2023/11/17 03:58:46;;;;;;;44.67;22.38;;;8.00;99.90;;;;;;5026817;27;20050;-71
2023/11/17 04:01:12;;;;;;;47.13;21.15;;;8.00;99.90;;;;;;5027398;27;20064;-71
2023/11/17 04:03:37;;;;;;;48.90;23.00;;;7.90;99.90;;;;;;5027391;27;20056;-71
2023/11/17 04:06:04;;;;;;;43.38;20.10;;;7.80;99.90;;;;;;5028944;27;20489;-71
2023/11/17 04:08:29;;;;;;;50.60;21.48;;;7.70;99.90;;;;;;5023108;27;20040;-71
2023/11/17 04:10:55;;;;;;;46.08;22.90;;;7.70;99.90;;;;;;5034068;27;20025;-71
2023/11/17 04:13:24;;;;;;;46.03;23.58;;;7.80;99.90;;;;;;5033411;27;20032;-71
2023/11/17 04:15:50;;;;;;;51.40;22.85;;;7.70;99.90;;;;;;5016848;27;20025;-70
2023/11/17 04:18:16;;;;;;;52.63;25.17;;;7.60;99.90;;;;;;5029706;27;20550;-71
2023/11/17 04:20:42;;;;;;;61.20;26.45;;;7.60;99.90;;;;;;5015553;27;20352;-71
2023/11/17 04:23:08;;;;;;;48.72;23.25;;;7.70;99.90;;;;;;5027658;27;20114;-71
2023/11/17 04:25:34;;;;;;;66.38;25.50;;;7.80;99.90;;;;;;5018467;27;20105;-71
2023/11/17 04:28:01;;;;;;;51.80;25.00;;;7.80;99.90;;;;;;5022345;28;20032;-71
2023/11/17 04:30:27;;;;;;;54.15;23.92;;;7.70;99.90;;;;;;5037376;27;20054;-71
2023/11/17 04:32:52;;;;;;;52.50;22.35;;;7.80;99.90;;;;;;5034742;27;20033;-70
2023/11/17 04:35:18;;;;;;;52.50;23.58;;;7.90;99.90;;;;;;5034312;27;20022;-70
2023/11/17 04:37:44;;;;;;;57.78;25.13;;;7.90;99.90;;;;;;5025988;27;20054;-70
2023/11/17 04:40:10;;;;;;;60.00;26.80;;;7.90;99.90;;;;;;5027935;27;20104;-70
2023/11/17 04:42:39;;;;;;;70.18;26.27;;;7.90;99.90;;;;;;5026518;27;20116;-70
2023/11/17 04:45:08;;;;;;;68.00;26.65;;;7.70;99.90;;;;;;5025918;27;20481;-71
2023/11/17 04:47:33;;;;;;;70.88;26.98;;;7.70;99.90;;;;;;5017149;27;20040;-70
2023/11/17 04:49:59;;;;;;;71.05;29.25;;;7.70;99.90;;;;;;5025563;28;20030;-71
2023/11/17 04:52:25;;;;;;;69.22;28.05;;;7.70;99.90;;;;;;5037912;27;20026;-71
2023/11/17 04:54:51;;;;;;;61.90;27.55;;;7.90;99.90;;;;;;5020265;27;20018;-70
2023/11/17 04:57:17;;;;;;;68.60;27.15;;;7.90;99.90;;;;;;5028943;27;20042;-70
2023/11/17 04:59:44;;;;;;;64.45;28.30;;;7.80;99.90;;;;;;5026595;27;20481;-70
2023/11/17 05:02:10;;;;;;;75.95;28.40;;;7.80;99.90;;;;;;5029648;27;20034;-70
2023/11/17 05:04:36;;;;;;;77.65;28.02;;;7.90;99.90;;;;;;5030980;27;20026;-70
2023/11/17 05:07:01;;;;;;;58.55;26.02;;;8.00;99.90;;;;;;5026999;27;20029;-70
2023/11/17 05:09:27;;;;;;;70.57;27.73;;;7.90;99.90;;;;;;5033170;27;20396;-70
2023/11/17 05:11:53;;;;;;;62.75;26.73;;;7.90;99.90;;;;;;5035992;27;20029;-70
2023/11/17 05:14:18;;;;;;;72.38;28.63;;;7.90;99.90;;;;;;5016077;28;20030;-71
2023/11/17 05:16:45;;;;;;;87.30;31.58;;;7.90;99.90;;;;;;5024475;28;20481;-70
2023/11/17 05:19:13;;;;;;;85.28;33.13;;;7.90;99.90;;;;;;5025196;27;20537;-71
2023/11/17 05:21:39;;;;;;;103.95;35.20;;;7.90;99.90;;;;;;5026990;28;20029;-71
2023/11/17 05:24:05;;;;;;;89.93;31.38;;;7.90;99.90;;;;;;5031644;28;20029;-71
2023/11/17 05:26:31;;;;;;;81.75;34.05;;;7.90;99.90;;;;;;5028627;28;20508;-76
2023/11/17 05:28:57;;;;;;;79.40;33.08;;;7.90;99.90;;;;;;5024654;28;20032;-71
2023/11/17 05:31:26;;;;;;;80.03;31.27;;;7.90;99.90;;;;;;5027127;28;20440;-71
2023/11/17 05:33:51;;;;;;;83.82;32.03;;;7.90;99.90;;;;;;5022209;28;20411;-71
2023/11/17 05:36:17;;;;;;;85.28;33.03;;;7.90;99.90;;;;;;5032532;27;20026;-70
2023/11/17 05:38:43;;;;;;;82.82;33.97;;;7.90;99.90;;;;;;5018588;28;20533;-71
2023/11/17 05:41:09;;;;;;;83.38;33.25;;;7.90;99.90;;;;;;5024070;28;20472;-71
2023/11/17 05:43:34;;;;;;;82.05;32.80;;;7.90;99.90;;;;;;5032168;27;20021;-70
2023/11/17 05:46:02;;;;;;;90.55;34.80;;;8.00;99.90;;;;;;5022238;27;20026;-70
2023/11/17 05:48:27;;;;;;;83.38;33.60;;;7.90;99.90;;;;;;5025926;27;20029;-71
2023/11/17 05:50:54;;;;;;;88.70;33.75;;;7.90;99.90;;;;;;5035049;27;20101;-70
2023/11/17 05:53:20;;;;;;;98.22;36.30;;;8.00;99.90;;;;;;5034682;27;20049;-71
2023/11/17 05:55:46;;;;;;;111.88;38.80;;;8.00;99.90;;;;;;5037750;27;20030;-71
2023/11/17 05:58:12;;;;;;;91.57;34.45;;;8.00;99.90;;;;;;5035502;27;20511;-71
2023/11/17 06:00:37;;;;;;;91.65;34.33;;;8.00;99.90;;;;;;5035176;27;20029;-71
2023/11/17 06:03:03;;;;;;;94.32;35.38;;;8.10;99.90;;;;;;5035878;27;20037;-71
2023/11/17 06:05:29;;;;;;;93.10;35.10;;;8.10;99.90;;;;;;5027715;27;20434;-71
2023/11/17 06:07:55;;;;;;;80.35;31.85;;;8.10;99.90;;;;;;5031380;27;20505;-71
2023/11/17 06:10:20;;;;;;;96.45;34.92;;;8.20;99.90;;;;;;5029488;27;20065;-71
2023/11/17 06:12:48;;;;;;;103.25;36.40;;;8.10;99.90;;;;;;5031941;27;20282;-71
2023/11/17 06:15:14;;;;;;;88.18;33.38;;;8.20;99.90;;;;;;5027326;27;20102;-71
2023/11/17 06:17:40;;;;;;;93.97;35.15;;;8.10;99.90;;;;;;5022044;28;20436;-71
2023/11/17 06:20:08;;;;;;;98.97;36.17;;;8.20;99.90;;;;;;5023484;27;20029;-71
2023/11/17 06:22:34;;;;;;;89.50;36.60;;;8.20;99.90;;;;;;5035624;27;20509;-71
2023/11/17 06:25:00;;;;;;;100.00;36.38;;;8.30;99.90;;;;;;5026363;27;20405;-71
2023/11/17 06:27:27;;;;;;;101.35;38.00;;;8.30;99.90;;;;;;5023311;27;20130;-71
2023/11/17 06:29:53;;;;;;;99.97;37.53;;;8.30;99.90;;;;;;5035828;27;20079;-71
2023/11/17 06:32:19;;;;;;;108.53;40.05;;;8.40;99.90;;;;;;5027703;27;20034;-71
2023/11/17 06:34:46;;;;;;;112.03;38.05;;;8.40;99.90;;;;;;5024869;27;20033;-71
2023/11/17 06:37:12;;;;;;;97.65;38.20;;;8.30;99.90;;;;;;5020773;27;20026;-71
2023/11/17 06:39:39;;;;;;;116.65;41.47;;;8.40;99.90;;;;;;5029733;27;20032;-71
2023/11/17 06:42:05;;;;;;;112.28;39.00;;;8.30;99.90;;;;;;5031991;27;20409;-71
2023/11/17 06:44:30;;;;;;;114.93;37.88;;;8.30;99.90;;;;;;5021732;27;20029;-71
2023/11/17 06:46:56;;;;;;;116.15;38.78;;;8.30;99.90;;;;;;5033230;27;20666;-70
2023/11/17 06:49:24;;;;;;;106.30;39.30;;;8.30;99.90;;;;;;5020939;28;20029;-71
2023/11/17 06:51:50;;;;;;;96.00;40.50;;;8.30;99.90;;;;;;5033001;27;20026;-71
2023/11/17 06:54:18;;;;;;;95.78;38.10;;;8.30;99.90;;;;;;5021487;27;20026;-70
2023/11/17 06:56:46;;;;;;;103.03;40.08;;;8.30;99.90;;;;;;5026911;27;20022;-69
2023/11/17 06:59:14;;;;;;;96.20;38.72;;;8.40;99.90;;;;;;5032687;27;20025;-70
2023/11/17 07:01:40;;;;;;;98.50;37.25;;;8.40;99.90;;;;;;5024695;27;20028;-70
2023/11/17 07:04:08;;;;;;;93.05;35.58;;;8.40;99.90;;;;;;5032000;27;20026;-69
2023/11/17 07:06:34;;;;;;;95.45;36.85;;;8.50;99.90;;;;;;5023209;27;20040;-69
2023/11/17 07:09:16;;;;;;;89.90;35.33;;;8.50;99.90;;;;;;5024451;27;20064;-69
2023/11/17 07:11:49;;;;;;;102.30;38.95;;;8.60;99.90;;;;;;5023378;27;20068;-70
2023/11/17 07:14:19;;;;;;;109.20;39.38;;;8.60;99.90;;;;;;5028661;27;20108;-70
2023/11/17 07:16:47;;;;;;;129.90;41.85;;;8.60;99.90;;;;;;5042307;27;20478;-70
2023/11/17 07:19:16;;;;;;;121.72;40.35;;;8.50;99.90;;;;;;5034658;27;20029;-69
2023/11/17 07:21:42;;;;;;;126.60;41.60;;;8.50;99.90;;;;;;5040236;27;20065;-71
2023/11/17 07:24:11;;;;;;;127.05;41.95;;;8.50;99.90;;;;;;5024774;27;20490;-71
2023/11/17 07:26:37;;;;;;;116.47;42.70;;;8.40;99.90;;;;;;5036941;27;20014;-70
2023/11/17 07:29:05;;;;;;;119.72;41.08;;;8.40;99.90;;;;;;5038681;27;20019;-70
2023/11/17 07:31:40;;;;;;;120.20;43.53;;;8.40;99.90;;;;;;5025830;27;20014;-72
2023/11/17 07:34:09;;;;;;;126.40;41.03;;;8.50;99.90;;;;;;5025580;27;20455;-71
2023/11/17 07:36:37;;;;;;;109.78;41.65;;;8.50;99.90;;;;;;5017190;27;20110;-70
2023/11/17 07:39:12;;;;;;;103.47;39.17;;;8.40;99.90;;;;;;5007983;27;20060;-70
2023/11/17 07:41:39;;;;;;;111.30;41.92;;;8.50;99.90;;;;;;5019969;27;20021;-71
2023/11/17 07:44:07;;;;;;;105.22;40.25;;;8.50;99.90;;;;;;5031833;28;20021;-70
2023/11/17 07:46:34;;;;;;;180.70;48.90;;;8.50;99.90;;;;;;5027886;27;20489;-71
2023/11/17 07:48:59;;;;;;;113.70;43.13;;;8.50;99.90;;;;;;5035882;27;20021;-70
2023/11/17 07:51:26;;;;;;;107.70;42.30;;;8.60;99.90;;;;;;5033535;27;20068;-71
2023/11/17 07:53:51;;;;;;;109.10;42.80;;;8.70;99.90;;;;;;5026670;27;20045;-71
2023/11/17 07:56:18;;;;;;;103.43;41.63;;;8.70;99.90;;;;;;5036004;27;20464;-70
2023/11/17 07:58:44;;;;;;;105.72;42.60;;;8.70;99.90;;;;;;5035411;27;20013;-70
2023/11/17 08:01:10;;;;;;;118.80;43.85;;;8.70;99.90;;;;;;5037958;27;20029;-70
2023/11/17 08:03:36;;;;;;;131.30;45.15;;;8.70;99.90;;;;;;5037656;27;20033;-70
2023/11/17 08:06:02;;;;;;;122.28;46.15;;;8.80;99.90;;;;;;5034579;28;20393;-70
2023/11/17 08:08:30;;;;;;;103.50;41.50;;;8.70;99.90;;;;;;5023798;28;20434;-71
2023/11/17 08:10:56;;;;;;;116.55;43.92;;;8.80;99.90;;;;;;5032258;27;20375;-69
2023/11/17 08:13:22;;;;;;;86.68;36.30;;;8.80;99.90;;;;;;5022891;27;20031;-71
2023/11/17 08:15:49;;;;;;;99.13;39.38;;;8.80;99.90;;;;;;5034269;28;20025;-70
2023/11/17 08:18:15;;;;;;;110.55;42.95;;;8.80;99.90;;;;;;5029753;28;20082;-70
2023/11/17 08:20:41;;;;;;;103.95;38.97;;;8.80;99.90;;;;;;5028878;27;20025;-70
2023/11/17 08:23:10;;;;;;;96.95;40.90;;;8.70;99.90;;;;;;5031776;27;20539;-70
2023/11/17 08:25:37;;;;;;;94.60;38.35;;;8.80;99.90;;;;;;5034021;27;20021;-70
2023/11/17 08:28:03;;;;;;;92.50;37.75;;;8.70;99.90;;;;;;5033154;27;20659;-70
2023/11/17 08:30:29;;;;;;;94.72;38.38;;;8.70;99.90;;;;;;5043610;27;20025;-71
2023/11/17 08:32:55;;;;;;;94.00;38.72;;;8.80;99.90;;;;;;5024694;28;20385;-71
2023/11/17 08:35:22;;;;;;;95.78;38.35;;;8.70;99.90;;;;;;5026955;27;20100;-70
2023/11/17 08:37:52;;;;;;;98.97;41.40;;;8.70;99.90;;;;;;5031017;28;20028;-69
2023/11/17 08:40:19;;;;;;;92.85;37.60;;;8.80;99.90;;;;;;5035380;27;20025;-70
2023/11/17 08:42:46;;;;;;;87.28;36.58;;;8.80;99.90;;;;;;5022835;28;20094;-70
2023/11/17 08:45:12;;;;;;;97.28;36.70;;;8.80;99.90;;;;;;5030615;28;20030;-71
2023/11/17 08:47:45;;;;;;;107.03;39.05;;;8.80;99.90;;;;;;5038138;27;20013;-71
2023/11/17 08:50:12;;;;;;;94.30;37.90;;;8.80;99.90;;;;;;5030616;28;20037;-70
2023/11/17 08:52:40;;;;;;;97.93;38.55;;;8.80;99.90;;;;;;5024328;27;20047;-71
2023/11/17 08:55:08;;;;;;;107.93;37.70;;;8.80;99.90;;;;;;5037671;27;20018;-72
2023/11/17 08:57:35;;;;;;;92.03;35.50;;;8.70;99.90;;;;;;5037813;27;20532;-72
2023/11/17 09:00:12;;;;;;;84.07;36.55;;;8.90;99.90;;;;;;5040040;27;20090;-74
2023/11/17 09:02:46;;;;;;;85.15;35.28;;;8.90;99.90;;;;;;5019555;27;20036;-72
2023/11/17 09:05:13;;;;;;;91.35;37.53;;;8.90;99.90;;;;;;5027633;27;20034;-73
2023/11/17 09:07:41;;;;;;;99.05;39.47;;;8.90;99.90;;;;;;5026370;28;20496;-72
2023/11/17 09:10:28;;;;;;;97.13;39.22;;;9.10;99.90;;;;;;5027479;28;20070;-72
2023/11/17 09:12:54;;;;;;;110.57;44.25;;;9.10;99.90;;;;;;5033195;27;20045;-73
2023/11/17 09:15:23;;;;;;;115.88;44.67;;;9.10;99.90;;;;;;5027588;27;20907;-73
2023/11/17 09:17:52;;;;;;;128.75;42.63;;;9.10;99.90;;;;;;5034824;28;20086;-73
2023/11/17 09:20:21;;;;;;;109.53;41.03;;;9.10;99.90;;;;;;5023012;28;20091;-72
2023/11/17 09:22:47;;;;;;;103.07;40.22;;;9.10;99.90;;;;;;5035818;27;20032;-72
2023/11/17 09:25:15;;;;;;;105.00;41.60;;;9.10;99.90;;;;;;5030564;28;20023;-72
2023/11/17 09:27:51;;;;;;;111.85;42.72;;;9.10;99.90;;;;;;5028725;28;20031;-72
2023/11/17 09:30:17;;;;;;;109.70;42.45;;;9.10;99.90;;;;;;5029980;28;20073;-72
2023/11/17 09:32:45;;;;;;;127.95;43.63;;;9.10;99.90;;;;;;5027739;28;20033;-72
2023/11/17 09:35:15;;;;;;;129.00;44.30;;;9.10;99.90;;;;;;5033833;28;20022;-72
2023/11/17 09:37:59;;;;;;;121.68;43.17;;;9.10;99.90;;;;;;5037011;28;20020;-72
2023/11/17 09:40:26;;;;;;;116.93;43.05;;;9.10;99.90;;;;;;5040021;28;20055;-72
2023/11/17 09:43:04;;;;;;;120.28;45.10;;;9.20;99.90;;;;;;5020669;28;20890;-73
2023/11/17 09:45:30;;;;;;;122.53;46.17;;;9.20;99.90;;;;;;5036867;28;20031;-72
2023/11/17 09:48:01;;;;;;;116.20;44.97;;;9.20;99.90;;;;;;5034833;28;20266;-72
2023/11/17 09:50:29;;;;;;;126.47;47.17;;;9.10;99.90;;;;;;5025169;28;20037;-72
2023/11/17 09:52:57;;;;;;;116.75;47.33;;;9.20;99.90;;;;;;5026683;28;20025;-72
2023/11/17 09:55:27;;;;;;;163.40;50.60;;;9.20;99.90;;;;;;5038796;28;20023;-72
2023/11/17 09:57:55;;;;;;;134.32;48.75;;;9.20;99.90;;;;;;5022934;28;20030;-72
2023/11/17 10:00:25;;;;;;;130.93;47.53;;;9.30;99.90;;;;;;5034555;28;20025;-72
2023/11/17 10:02:56;;;;;;;135.57;48.78;;;9.30;99.90;;;;;;5033213;28;20031;-73
2023/11/17 10:05:26;;;;;;;134.65;46.17;;;9.30;99.90;;;;;;5037499;28;20026;-72
2023/11/17 10:07:59;;;;;;;135.55;47.17;;;9.30;99.90;;;;;;5041185;28;20047;-73
2023/11/17 10:10:26;;;;;;;133.98;48.58;;;9.30;99.90;;;;;;5022285;28;20109;-72
2023/11/17 10:12:57;;;;;;;130.80;46.97;;;9.30;99.90;;;;;;5031459;28;20046;-72
2023/11/17 10:15:25;;;;;;;146.18;50.17;;;9.30;99.90;;;;;;5033987;28;20194;-73
2023/11/17 10:18:05;;;;;;;146.32;51.42;;;9.30;99.90;;;;;;5037186;28;20038;-72
2023/11/17 10:20:36;;;;;;;132.50;50.20;;;9.40;99.90;;;;;;5024471;28;20573;-73
2023/11/17 10:23:02;;;;;;;169.85;54.00;;;9.40;99.90;;;;;;5024253;28;20034;-73
2023/11/17 10:25:29;;;;;;;130.57;47.60;;;9.50;99.90;;;;;;5034963;28;20344;-73
2023/11/17 10:27:55;;;;;;;177.05;54.20;;;9.50;99.90;;;;;;5035923;28;20035;-73
2023/11/17 10:30:26;;;;;;;177.88;56.45;;;9.50;99.90;;;;;;5038570;27;20080;-72
2023/11/17 10:33:15;;;;;;;156.80;54.70;;;9.60;99.90;;;;;;5022154;27;20113;-73
2023/11/17 10:36:00;;;;;;;153.38;53.78;;;9.60;99.90;;;;;;5028570;27;20030;-73
2023/11/17 10:38:28;;;;;;;162.02;53.03;;;9.70;99.90;;;;;;5034480;27;20109;-72
2023/11/17 10:41:11;;;;;;;156.25;53.35;;;9.80;99.90;;;;;;5017636;28;20029;-73
2023/11/17 10:43:52;;;;;;;;;;;9.90;99.90;;;;;;5018276;27;20041;-73
2023/11/17 10:46:22;;;;;;;168.13;55.15;;;9.90;99.90;;;;;;5040762;27;20377;-73
2023/11/17 10:48:51;;;;;;;152.90;52.42;;;10.00;99.90;;;;;;5040879;27;20035;-74
2023/11/17 10:51:19;;;;;;;139.07;49.10;;;10.00;99.90;;;;;;5034890;27;20025;-73
2023/11/17 10:54:09;;;;;;;143.15;50.00;;;10.00;99.90;;;;;;5029960;27;20022;-73
2023/11/17 10:56:36;;;;;;;156.13;54.85;;;10.10;99.90;;;;;;5047707;27;20036;-76
2023/11/17 10:59:04;;;;;;;144.85;50.30;;;10.10;99.90;;;;;;5038254;27;20032;-73
2023/11/17 11:01:34;;;;;;;161.60;52.22;;;10.20;99.90;;;;;;5028672;27;20025;-73
2023/11/17 11:06:58;;;;;;;143.90;51.00;;;10.20;99.90;;;;;;5025134;27;20112;-74
2023/11/17 11:09:36;;;;;;;143.32;52.00;;;10.30;99.90;;;;;;5036206;27;20102;-73
2023/11/17 11:12:08;;;;;;;118.80;46.28;;;10.40;99.90;;;;;;5038913;27;20025;-73
2023/11/17 11:14:39;;;;;;;131.70;47.30;;;10.30;99.90;;;;;;5037751;27;20025;-72
2023/11/17 11:17:04;;;;;;;129.88;49.35;;;10.30;99.90;;;;;;5033215;27;20026;-72
2023/11/17 11:19:31;;;;;;;131.52;48.15;;;10.20;99.90;;;;;;5033930;27;20017;-73
2023/11/17 11:22:00;;;;;;;129.10;48.10;;;10.20;99.90;;;;;;5031293;27;20034;-74
2023/11/17 11:24:33;;;;;;;127.10;47.55;;;10.30;99.90;;;;;;5025572;27;20167;-73
2023/11/17 11:27:01;;;;;;;120.05;46.50;;;10.30;99.90;;;;;;5035338;28;20021;-72
2023/11/17 11:29:29;;;;;;;113.90;43.78;;;10.40;99.90;;;;;;5031935;27;20029;-72
2023/11/17 11:31:56;;;;;;;107.63;42.40;;;10.40;99.90;;;;;;5038698;27;20020;-72
2023/11/17 11:34:22;;;;;;;102.45;41.47;;;10.40;99.90;;;;;;5044101;27;20481;-72
2023/11/17 11:36:48;;;;;;;77.13;34.78;;;10.50;99.90;;;;;;5040497;27;20033;-72
2023/11/17 11:39:15;;;;;;;66.50;29.27;;;10.40;99.90;;;;;;5028115;27;20361;-72
2023/11/17 11:41:42;;;;;;;63.88;29.27;;;10.40;99.90;;;;;;5033415;28;20064;-73
2023/11/17 11:44:09;;;;;;;54.67;25.83;;;10.50;99.90;;;;;;5022701;27;20036;-72
2023/11/17 11:46:37;;;;;;;51.53;23.85;;;10.60;99.90;;;;;;5035411;27;20056;-72
2023/11/17 11:49:05;;;;;;;49.33;24.00;;;10.60;99.90;;;;;;5041594;27;20791;-72
2023/11/17 11:51:37;;;;;;;53.88;25.65;;;10.60;99.90;;;;;;5039472;27;20041;-71
2023/11/17 11:54:09;;;;;;;42.45;19.83;;;10.60;99.90;;;;;;5026387;27;20061;-71
2023/11/17 11:56:44;;;;;;;41.80;19.33;;;10.70;99.90;;;;;;5037699;27;20474;-71
2023/11/17 11:59:10;;;;;;;39.53;19.10;;;10.70;99.90;;;;;;5027779;27;20022;-71
2023/11/17 12:01:36;;;;;;;35.75;18.17;;;10.80;99.90;;;;;;5036093;27;20067;-72
2023/11/17 12:04:10;;;;;;;39.38;19.77;;;10.90;99.90;;;;;;5034866;27;20061;-71
2023/11/17 12:06:36;;;;;;;47.85;22.10;;;10.90;99.90;;;;;;5036780;27;20098;-71
2023/11/17 12:09:07;;;;;;;43.85;21.33;;;10.90;99.90;;;;;;5038342;27;20081;-72
2023/11/17 12:11:34;;;;;;;48.20;23.80;;;10.90;99.90;;;;;;5023752;28;20100;-74
2023/11/17 12:14:04;;;;;;;44.33;22.65;;;11.00;99.90;;;;;;5040678;27;20040;-72
2023/11/17 12:16:30;;;;;;;45.25;23.83;;;11.00;99.90;;;;;;5033415;27;20022;-72
2023/11/17 12:18:59;;;;;;;43.40;21.83;;;11.00;99.90;;;;;;5026666;28;20040;-72
2023/11/17 12:21:25;;;;;;;33.97;18.40;;;11.00;99.90;;;;;;5033139;27;20030;-72
2023/11/17 12:23:56;;;;;;;38.10;19.05;;;11.00;99.90;;;;;;5031463;27;20058;-72
2023/11/17 12:26:24;;;;;;;34.78;18.33;;;11.00;99.90;;;;;;5042561;27;20037;-72
2023/11/17 12:28:50;;;;;;;36.15;16.90;;;10.90;99.90;;;;;;5029135;28;20036;-72
2023/11/17 12:31:18;;;;;;;34.33;18.27;;;10.90;99.90;;;;;;5039714;27;20466;-71
2023/11/17 12:33:49;;;;;;;33.95;18.30;;;10.90;99.90;;;;;;5027097;27;20483;-73
2023/11/17 12:36:17;;;;;;;37.60;19.92;;;10.80;99.90;;;;;;5038528;27;20104;-76
2023/11/17 12:38:44;;;;;;;35.60;19.92;;;10.80;99.90;;;;;;5020321;27;20026;-74
2023/11/17 12:41:12;;;;;;;33.92;18.95;;;10.70;99.90;;;;;;5038638;27;20040;-73
2023/11/17 12:43:45;;;;;;;39.72;20.70;;;10.80;99.90;;;;;;5031008;27;20031;-72